createdAt,value
2018-11-11T00:00:46.039Z,8.59
2018-11-11T00:03:18.047Z,8.63
2018-11-11T00:05:50.043Z,8.60
2018-11-11T00:08:22.080Z,8.62
2018-11-11T00:10:54.120Z,8.74
2018-11-11T00:13:26.103Z,8.70
2018-11-11T00:15:58.065Z,8.60
2018-11-11T00:18:30.076Z,8.60
2018-11-11T00:21:02.068Z,8.65
2018-11-11T00:23:34.101Z,8.64
2018-11-11T00:26:06.246Z,8.56
2018-11-11T00:28:38.332Z,8.60
2018-11-11T00:31:10.253Z,8.58
2018-11-11T00:33:42.233Z,8.60
2018-11-11T00:36:14.196Z,8.50
2018-11-11T00:38:46.211Z,8.57
2018-11-11T00:41:18.185Z,8.49
2018-11-11T00:43:50.204Z,8.50
2018-11-11T00:46:22.231Z,8.53
2018-11-11T00:48:54.303Z,8.44
2018-11-11T00:51:26.308Z,8.51
2018-11-11T00:53:58.389Z,8.47
2018-11-11T00:56:30.392Z,8.46
2018-11-11T00:59:02.420Z,8.43
2018-11-11T01:01:34.439Z,8.46
2018-11-11T01:04:06.446Z,8.54
2018-11-11T01:06:38.443Z,8.48
2018-11-11T01:09:10.457Z,8.46
2018-11-11T01:11:42.448Z,8.46
2018-11-11T01:14:14.435Z,8.43
2018-11-11T01:16:46.418Z,8.42
2018-11-11T01:19:18.440Z,8.43
2018-11-11T01:21:50.418Z,8.49
2018-11-11T01:24:22.428Z,8.51
2018-11-11T01:26:54.402Z,8.48
2018-11-11T01:29:26.439Z,8.43
2018-11-11T01:31:58.407Z,8.44
2018-11-11T01:34:30.395Z,8.44
2018-11-11T01:37:02.417Z,8.34
2018-11-11T01:39:34.407Z,8.38
2018-11-11T01:42:06.441Z,8.34
2018-11-11T01:44:38.463Z,8.33
2018-11-11T01:47:10.449Z,8.40
2018-11-11T01:49:42.479Z,8.36
2018-11-11T01:52:14.438Z,8.35
2018-11-11T01:54:46.433Z,8.41
2018-11-11T01:57:18.414Z,8.46
2018-11-11T01:59:50.413Z,8.46
2018-11-11T02:02:22.378Z,8.38
2018-11-11T02:04:54.391Z,8.42
2018-11-11T02:07:26.378Z,8.44
2018-11-11T02:09:58.507Z,8.35
2018-11-11T02:12:30.429Z,8.37
2018-11-11T02:15:02.415Z,8.43
2018-11-11T02:17:34.551Z,8.44
2018-11-11T02:20:09.288Z,8.41
2018-11-11T02:22:41.667Z,8.42
2018-11-11T02:25:13.694Z,8.42
2018-11-11T02:27:45.997Z,8.45
2018-11-11T02:30:20.235Z,8.42
2018-11-11T02:32:52.264Z,8.47
2018-11-11T02:35:24.289Z,8.55
2018-11-11T02:37:56.245Z,8.48
2018-11-11T02:40:28.241Z,8.55
2018-11-11T02:43:00.224Z,8.52
2018-11-11T02:45:32.231Z,8.54
2018-11-11T02:48:04.383Z,8.55
2018-11-11T02:50:36.357Z,8.49
2018-11-11T02:53:08.316Z,8.46
2018-11-11T02:55:40.314Z,8.46
2018-11-11T02:58:12.303Z,8.48
2018-11-11T03:00:44.296Z,8.44
2018-11-11T03:03:16.335Z,8.37
2018-11-11T03:05:48.350Z,8.40
2018-11-11T03:08:20.340Z,8.34
2018-11-11T03:10:52.400Z,8.34
2018-11-11T03:13:24.408Z,8.41
2018-11-11T03:15:56.451Z,8.43
2018-11-11T03:18:28.464Z,8.37
2018-11-11T03:21:00.483Z,8.43
2018-11-11T03:23:32.492Z,8.43
2018-11-11T03:26:04.902Z,8.46
2018-11-11T03:28:36.916Z,8.39
2018-11-11T03:31:08.917Z,8.38
2018-11-11T03:33:40.946Z,8.34
2018-11-11T03:36:12.960Z,8.39
2018-11-11T03:38:45.248Z,8.36
2018-11-11T03:41:17.299Z,8.37
2018-11-11T03:43:49.314Z,8.34
2018-11-11T03:46:21.559Z,8.36
2018-11-11T03:48:53.588Z,8.33
2018-11-11T03:51:25.603Z,8.32
2018-11-11T03:53:57.724Z,8.34
2018-11-11T03:56:29.755Z,8.32
2018-11-11T03:59:01.775Z,8.31
2018-11-11T04:01:33.812Z,8.32
2018-11-11T04:04:05.915Z,8.30
2018-11-11T04:06:37.974Z,8.27
2018-11-11T04:09:11.195Z,8.22
2018-11-11T04:11:43.259Z,8.29
2018-11-11T04:14:15.517Z,8.28
2018-11-11T04:16:47.540Z,8.24
2018-11-11T04:19:19.559Z,8.23
2018-11-11T04:21:51.615Z,8.22
2018-11-11T04:24:23.623Z,8.23
2018-11-11T04:26:55.726Z,8.19
2018-11-11T04:29:27.777Z,8.23
2018-11-11T04:31:59.837Z,8.23
2018-11-11T04:34:31.847Z,8.21
2018-11-11T04:37:03.955Z,8.20
2018-11-11T04:39:35.983Z,8.22
2018-11-11T04:42:08.022Z,8.25
2018-11-11T04:44:40.050Z,8.30
2018-11-11T04:47:12.144Z,8.31
2018-11-11T04:49:44.176Z,8.27
2018-11-11T04:52:16.233Z,8.23
2018-11-11T04:54:48.294Z,8.27
2018-11-11T04:57:20.374Z,8.15
2018-11-11T04:59:52.399Z,8.14
2018-11-11T05:02:24.419Z,8.16
2018-11-11T05:04:56.436Z,8.22
2018-11-11T05:07:28.488Z,8.17
2018-11-11T05:10:00.519Z,8.16
2018-11-11T05:12:32.598Z,8.10
2018-11-11T05:15:05.920Z,7.99
2018-11-11T05:17:37.954Z,8.00
2018-11-11T05:20:11.043Z,7.96
2018-11-11T05:22:43.327Z,7.96
2018-11-11T05:25:15.343Z,7.93
2018-11-11T05:27:47.392Z,7.92
2018-11-11T05:30:19.509Z,7.92
2018-11-11T05:32:51.608Z,7.89
2018-11-11T05:35:23.746Z,7.94
2018-11-11T05:37:55.881Z,7.95
2018-11-11T05:40:27.936Z,7.96
2018-11-11T05:42:59.959Z,8.02
2018-11-11T05:45:31.992Z,8.01
2018-11-11T05:48:04.027Z,8.00
2018-11-11T05:50:36.052Z,8.06
2018-11-11T05:53:08.200Z,8.04
2018-11-11T05:55:40.207Z,8.06
2018-11-11T05:58:12.375Z,8.11
2018-11-11T06:00:44.399Z,8.16
2018-11-11T06:03:16.430Z,8.19
2018-11-11T06:05:48.434Z,8.10
2018-11-11T06:08:20.499Z,8.15
2018-11-11T06:10:52.518Z,8.20
2018-11-11T06:13:24.526Z,8.11
2018-11-11T06:15:56.528Z,8.11
2018-11-11T06:18:28.545Z,8.11
2018-11-11T06:21:00.554Z,8.10
2018-11-11T06:23:32.639Z,8.10
2018-11-11T06:26:05.077Z,8.15
2018-11-11T06:28:37.064Z,8.13
2018-11-11T06:31:09.089Z,8.15
2018-11-11T06:33:41.108Z,8.19
2018-11-11T06:36:13.063Z,8.20
2018-11-11T06:38:45.044Z,8.22
2018-11-11T06:41:17.065Z,8.26
2018-11-11T06:43:49.123Z,8.25
2018-11-11T06:46:21.107Z,8.27
2018-11-11T06:48:53.102Z,8.22
2018-11-11T06:51:25.095Z,8.25
2018-11-11T06:53:57.113Z,8.26
2018-11-11T06:56:29.120Z,8.23
2018-11-11T06:59:01.112Z,8.18
2018-11-11T07:01:33.205Z,8.31
2018-11-11T07:04:05.202Z,8.36
2018-11-11T07:06:37.283Z,8.27
2018-11-11T07:09:09.308Z,8.33
2018-11-11T07:11:41.357Z,8.40
2018-11-11T07:14:13.511Z,8.40
2018-11-11T07:16:45.455Z,8.40
2018-11-11T07:19:17.468Z,8.50
2018-11-11T07:21:49.515Z,8.43
2018-11-11T07:24:21.534Z,8.44
2018-11-11T07:26:53.552Z,8.47
2018-11-11T07:29:25.683Z,8.56
2018-11-11T07:31:57.737Z,8.60
2018-11-11T07:34:29.782Z,8.61
2018-11-11T07:37:01.803Z,8.71
2018-11-11T07:39:33.861Z,8.72
2018-11-11T07:42:05.910Z,8.72
2018-11-11T07:44:37.961Z,8.79
2018-11-11T07:47:10.099Z,8.83
2018-11-11T07:49:42.139Z,8.83
2018-11-11T07:52:14.183Z,8.73
2018-11-11T07:54:46.478Z,8.89
2018-11-11T07:57:18.476Z,8.49
2018-11-11T07:59:50.550Z,8.78
2018-11-11T08:02:22.573Z,8.85
2018-11-11T08:04:54.868Z,8.80
2018-11-11T08:07:26.877Z,8.97
2018-11-11T08:09:58.915Z,8.91
2018-11-11T08:12:30.927Z,8.89
2018-11-11T08:15:02.952Z,8.79
2018-11-11T08:17:34.921Z,8.67
2018-11-11T08:20:06.986Z,8.71
2018-11-11T08:22:38.963Z,8.79
2018-11-11T08:25:11.010Z,8.83
2018-11-11T08:27:42.992Z,8.95
2018-11-11T08:30:14.991Z,9.00
2018-11-11T08:32:46.971Z,9.03
2018-11-11T08:35:18.987Z,8.95
2018-11-11T08:37:50.956Z,9.00
2018-11-11T08:40:22.988Z,9.02
2018-11-11T08:42:54.964Z,9.08
2018-11-11T08:45:26.946Z,8.95
2018-11-11T08:47:58.957Z,8.94
2018-11-11T08:50:31.009Z,8.82
2018-11-11T08:53:03.004Z,8.86
2018-11-11T08:55:35.013Z,8.97
2018-11-11T08:58:07.043Z,8.94
2018-11-11T09:00:38.998Z,8.95
2018-11-11T09:03:10.991Z,9.05
2018-11-11T09:05:43.001Z,9.38
2018-11-11T09:08:15.200Z,9.52
2018-11-11T09:10:47.194Z,9.48
2018-11-11T09:13:19.201Z,9.38
2018-11-11T09:15:51.193Z,9.24
2018-11-11T09:18:23.171Z,9.33
2018-11-11T09:20:55.155Z,9.36
2018-11-11T09:23:27.142Z,9.46
2018-11-11T09:25:59.176Z,9.47
2018-11-11T09:28:31.159Z,9.55
2018-11-11T09:31:03.231Z,9.46
2018-11-11T09:33:35.228Z,9.46
2018-11-11T09:36:08.023Z,9.43
2018-11-11T09:38:40.011Z,9.33
2018-11-11T09:41:12.009Z,9.30
2018-11-11T09:43:43.999Z,9.36
2018-11-11T09:46:16.004Z,9.39
2018-11-11T09:48:47.976Z,9.40
2018-11-11T09:51:19.947Z,9.39
2018-11-11T09:53:51.961Z,9.29
2018-11-11T09:56:23.943Z,9.20
2018-11-11T09:58:55.934Z,9.19
2018-11-11T10:01:28.190Z,9.36
2018-11-11T10:04:05.299Z,9.49
2018-11-11T10:07:49.544Z,9.58
2018-11-11T10:10:34.858Z,9.58
2018-11-11T10:13:14.249Z,9.75
2018-11-11T10:17:55.258Z,9.58
2018-11-11T10:21:30.468Z,9.39
2018-11-11T10:24:20.858Z,9.57
2018-11-11T10:27:04.537Z,9.83
2018-11-11T10:29:41.809Z,9.93
2018-11-11T10:32:32.482Z,10.07
2018-11-11T10:35:09.666Z,9.93
2018-11-11T10:37:46.856Z,9.93
2018-11-11T10:40:23.224Z,10.30
2018-11-11T10:43:05.031Z,10.36
2018-11-11T10:45:47.304Z,10.10
2018-11-11T10:48:22.853Z,10.19
2018-11-11T10:50:57.174Z,10.11
2018-11-11T10:53:29.196Z,10.01
2018-11-11T10:56:01.221Z,9.76
2018-11-11T10:58:33.291Z,9.71
2018-11-11T11:01:12.769Z,9.83
2018-11-11T11:03:44.865Z,9.69
2018-11-11T11:06:17.039Z,9.97
2018-11-11T11:08:54.626Z,10.01
2018-11-11T11:11:26.659Z,9.86
2018-11-11T11:13:58.745Z,9.79
2018-11-11T11:16:30.696Z,10.26
2018-11-11T11:19:02.723Z,10.79
2018-11-11T11:21:34.748Z,11.01
2018-11-11T11:24:06.816Z,11.24
2018-11-11T11:26:38.843Z,11.55
2018-11-11T11:29:10.865Z,11.25
2018-11-11T11:31:42.970Z,10.78
2018-11-11T11:34:14.966Z,11.13
2018-11-11T11:36:47.213Z,11.11
2018-11-11T11:39:19.296Z,11.03
2018-11-11T11:41:51.377Z,11.06
2018-11-11T11:44:23.435Z,10.68
2018-11-11T11:46:55.440Z,10.88
2018-11-11T11:49:27.462Z,10.71
2018-11-11T11:51:59.597Z,10.85
2018-11-11T11:54:31.656Z,11.17
2018-11-11T11:57:03.695Z,10.81
2018-11-11T11:59:35.709Z,10.92
2018-11-11T12:02:07.799Z,11.32
2018-11-11T12:04:39.827Z,11.15
2018-11-11T12:07:11.839Z,10.76
2018-11-11T12:09:43.878Z,10.56
2018-11-11T12:12:15.861Z,10.84
2018-11-11T12:14:47.866Z,11.06
2018-11-11T12:17:20.013Z,11.16
2018-11-11T12:19:51.943Z,11.10
2018-11-11T12:22:24.031Z,11.05
2018-11-11T12:24:55.995Z,10.81
2018-11-11T12:27:28.002Z,10.71
2018-11-11T12:30:00.024Z,10.66
2018-11-11T12:32:31.986Z,11.05
2018-11-11T12:35:04.501Z,11.53
2018-11-11T12:37:37.002Z,11.84
2018-11-11T12:40:10.566Z,11.86
2018-11-11T12:42:43.159Z,11.63
2018-11-11T12:45:15.152Z,11.35
2018-11-11T12:47:47.175Z,11.17
2018-11-11T12:50:19.186Z,10.85
2018-11-11T12:52:51.203Z,11.03
2018-11-11T12:55:23.276Z,11.37
2018-11-11T12:57:55.251Z,11.14
2018-11-11T13:00:27.240Z,10.99
2018-11-11T13:02:59.207Z,11.09
2018-11-11T13:05:31.330Z,11.29
2018-11-11T13:08:03.595Z,11.36
2018-11-11T13:10:35.580Z,11.49
2018-11-11T13:13:07.624Z,11.38
2018-11-11T13:15:39.661Z,11.02
2018-11-11T13:18:11.717Z,10.82
2018-11-11T13:20:43.747Z,11.16
2018-11-11T13:23:15.789Z,11.37
2018-11-11T13:25:47.799Z,11.40
2018-11-11T13:28:19.857Z,11.36
2018-11-11T13:30:51.911Z,10.97
2018-11-11T13:33:23.979Z,10.81
2018-11-11T13:35:56.095Z,10.98
2018-11-11T13:38:28.156Z,10.84
2018-11-11T13:41:00.151Z,11.06
2018-11-11T13:43:32.236Z,11.10
2018-11-11T13:46:04.308Z,11.36
2018-11-11T13:48:36.382Z,11.23
2018-11-11T13:51:08.396Z,11.22
2018-11-11T13:53:40.412Z,11.21
2018-11-11T13:56:12.431Z,11.23
2018-11-11T13:58:44.449Z,11.21
2018-11-11T14:01:16.488Z,11.33
2018-11-11T14:03:48.526Z,11.51
2018-11-11T14:06:20.535Z,11.87
2018-11-11T14:08:52.589Z,12.04
2018-11-11T14:11:24.672Z,11.75
2018-11-11T14:13:56.700Z,11.72
2018-11-11T14:16:28.766Z,11.77
2018-11-11T14:19:01.047Z,11.84
2018-11-11T14:21:33.173Z,11.86
2018-11-11T14:24:05.255Z,11.53
2018-11-11T14:26:37.389Z,11.74
2018-11-11T14:29:09.366Z,12.02
2018-11-11T14:31:41.399Z,11.98
2018-11-11T14:34:13.417Z,11.87
2018-11-11T14:36:45.483Z,11.63
2018-11-11T14:39:17.509Z,11.29
2018-11-11T14:41:49.588Z,11.18
2018-11-11T14:44:21.631Z,11.05
2018-11-11T14:46:53.687Z,10.94
2018-11-11T14:49:25.703Z,10.68
2018-11-11T14:51:57.785Z,10.52
2018-11-11T14:54:29.843Z,10.37
2018-11-11T14:57:01.917Z,10.42
2018-11-11T14:59:34.027Z,10.37
2018-11-11T15:02:06.094Z,10.34
2018-11-11T15:04:38.164Z,10.26
2018-11-11T15:07:10.168Z,10.22
2018-11-11T15:09:42.200Z,10.20
2018-11-11T15:12:14.200Z,10.19
2018-11-11T15:14:46.184Z,10.12
2018-11-11T15:17:18.188Z,9.94
2018-11-11T15:19:51.121Z,9.87
2018-11-11T15:22:23.018Z,9.74
2018-11-11T15:24:55.012Z,9.62
2018-11-11T15:27:27.027Z,9.51
2018-11-11T15:29:58.992Z,9.43
2018-11-11T15:32:30.984Z,9.19
2018-11-11T15:35:03.185Z,9.21
2018-11-11T15:37:35.503Z,9.11
2018-11-11T15:40:09.292Z,9.04
2018-11-11T15:42:41.300Z,8.85
2018-11-11T15:45:16.247Z,8.71
2018-11-11T15:47:48.240Z,8.68
2018-11-11T15:50:22.672Z,8.72
2018-11-11T15:52:55.998Z,8.68
2018-11-11T15:55:29.165Z,8.63
2018-11-11T15:58:01.244Z,8.47
2018-11-11T16:00:34.824Z,8.35
2018-11-11T16:03:06.829Z,8.36
2018-11-11T16:05:38.851Z,8.35
2018-11-11T16:08:10.869Z,8.45
2018-11-11T16:10:42.905Z,8.32
2018-11-11T16:13:14.896Z,8.38
2018-11-11T16:15:46.866Z,8.50
2018-11-11T16:18:18.937Z,8.51
2018-11-11T16:20:50.915Z,8.33
2018-11-11T16:23:22.967Z,8.38
2018-11-11T16:25:54.949Z,8.30
2018-11-11T16:28:26.923Z,8.23
2018-11-11T16:30:58.935Z,8.19
2018-11-11T16:33:30.953Z,8.13
2018-11-11T16:36:02.996Z,8.07
2018-11-11T16:38:34.920Z,8.05
2018-11-11T16:41:07.089Z,8.00
2018-11-11T16:43:38.876Z,7.93
2018-11-11T16:46:10.915Z,7.88
2018-11-11T16:48:42.860Z,7.89
2018-11-11T16:51:14.873Z,7.96
2018-11-11T16:53:46.843Z,7.97
2018-11-11T16:56:18.859Z,7.86
2018-11-11T16:58:50.951Z,7.78
2018-11-11T17:01:22.964Z,7.77
2018-11-11T17:03:54.998Z,7.66
2018-11-11T17:06:26.988Z,7.57
2018-11-11T17:08:59.026Z,7.43
2018-11-11T17:11:31.080Z,7.37
2018-11-11T17:14:03.183Z,7.37
2018-11-11T17:16:35.223Z,7.43
2018-11-11T17:19:07.240Z,7.34
2018-11-11T17:21:39.421Z,7.26
2018-11-11T17:24:11.271Z,7.29
2018-11-11T17:26:43.336Z,7.23
2018-11-11T17:29:15.442Z,7.16
2018-11-11T17:31:47.944Z,7.24
2018-11-11T17:34:19.982Z,7.22
2018-11-11T17:36:52.019Z,7.19
2018-11-11T17:39:24.035Z,7.19
2018-11-11T17:41:56.057Z,7.12
2018-11-11T17:44:29.210Z,6.69
2018-11-11T17:47:01.267Z,6.92
2018-11-11T17:49:33.259Z,6.93
2018-11-11T17:52:05.343Z,7.04
2018-11-11T17:54:37.379Z,6.99
2018-11-11T17:57:09.703Z,7.02
2018-11-11T17:59:41.691Z,7.03
2018-11-11T18:02:13.717Z,7.06
2018-11-11T18:04:45.721Z,7.02
2018-11-11T18:07:17.775Z,6.86
2018-11-11T18:09:49.805Z,6.90
2018-11-11T18:12:21.817Z,6.96
2018-11-11T18:14:54.348Z,7.06
2018-11-11T18:17:26.299Z,6.95
2018-11-11T18:19:58.347Z,6.91
2018-11-11T18:22:30.299Z,6.86
2018-11-11T18:25:02.287Z,6.82
2018-11-11T18:27:34.422Z,6.74
2018-11-11T18:30:10.238Z,6.85
2018-11-11T18:32:42.501Z,6.88
2018-11-11T18:35:15.416Z,6.96
2018-11-11T18:37:47.483Z,6.89
2018-11-11T18:40:20.858Z,7.08
2018-11-11T18:42:52.849Z,7.12
2018-11-11T18:45:26.164Z,7.07
2018-11-11T18:47:58.409Z,7.15
2018-11-11T18:50:31.696Z,7.13
2018-11-11T18:53:03.949Z,7.16
2018-11-11T18:55:36.003Z,7.03
2018-11-11T18:58:07.985Z,7.04
2018-11-11T19:00:39.989Z,7.04
2018-11-11T19:03:11.978Z,7.12
2018-11-11T19:05:43.987Z,7.20
2018-11-11T19:08:16.015Z,7.17
2018-11-11T19:10:48.079Z,7.25
2018-11-11T19:13:20.112Z,7.28
2018-11-11T19:15:52.011Z,7.31
2018-11-11T19:18:23.978Z,7.38
2018-11-11T19:20:55.974Z,7.41
2018-11-11T19:23:27.950Z,7.41
2018-11-11T19:25:59.919Z,7.33
2018-11-11T19:28:32.000Z,7.35
2018-11-11T19:31:04.092Z,7.30
2018-11-11T19:33:36.166Z,7.20
2018-11-11T19:36:08.219Z,7.20
2018-11-11T19:38:40.196Z,7.24
2018-11-11T19:41:12.277Z,7.30
2018-11-11T19:43:44.221Z,7.28
2018-11-11T19:46:16.288Z,7.29
2018-11-11T19:48:48.279Z,7.27
2018-11-11T19:51:20.306Z,7.24
2018-11-11T19:53:52.342Z,7.12
2018-11-11T19:56:24.479Z,7.19
2018-11-11T19:58:56.550Z,7.13
2018-11-11T20:01:28.553Z,7.16
2018-11-11T20:04:00.540Z,7.13
2018-11-11T20:06:32.583Z,7.17
2018-11-11T20:09:07.827Z,7.12
2018-11-11T20:11:39.891Z,7.17
2018-11-11T20:14:11.921Z,7.17
2018-11-11T20:16:44.031Z,7.25
2018-11-11T20:19:16.033Z,7.27
2018-11-11T20:21:48.054Z,7.23
2018-11-11T20:24:20.205Z,7.19
2018-11-11T20:26:52.140Z,7.17
2018-11-11T20:29:24.266Z,7.07
2018-11-11T20:31:56.303Z,7.14
2018-11-11T20:34:28.357Z,6.99
2018-11-11T20:37:00.504Z,6.94
2018-11-11T20:39:32.460Z,6.88
2018-11-11T20:42:04.475Z,6.84
2018-11-11T20:44:36.645Z,6.76
2018-11-11T20:47:08.711Z,6.70
2018-11-11T20:49:40.809Z,6.60
2018-11-11T20:52:12.848Z,6.67
2018-11-11T20:54:45.103Z,6.89
2018-11-11T20:57:17.196Z,6.84
2018-11-11T20:59:49.231Z,6.86
2018-11-11T21:02:21.254Z,6.94
2018-11-11T21:04:53.395Z,6.89
2018-11-11T21:07:25.557Z,6.88
2018-11-11T21:09:57.568Z,6.91
2018-11-11T21:12:29.572Z,6.96
2018-11-11T21:15:01.597Z,6.95
2018-11-11T21:17:33.662Z,6.94
2018-11-11T21:20:07.719Z,6.97
2018-11-11T21:22:40.128Z,6.98
2018-11-11T21:25:12.487Z,7.08
2018-11-11T21:27:45.476Z,7.01
2018-11-11T21:30:18.926Z,7.03
2018-11-11T21:32:51.007Z,7.09
2018-11-11T21:35:22.975Z,7.01
2018-11-11T21:37:55.099Z,7.06
2018-11-11T21:40:27.332Z,7.00
2018-11-11T21:42:59.304Z,6.86
2018-11-11T21:45:31.276Z,6.91
2018-11-11T21:48:03.629Z,6.88
2018-11-11T21:50:35.623Z,6.89
2018-11-11T21:53:28.241Z,6.91
2018-11-11T21:56:01.102Z,6.91
2018-11-11T21:58:33.124Z,6.84
2018-11-11T22:01:05.634Z,6.80
2018-11-11T22:03:37.918Z,6.78
2018-11-11T22:06:09.899Z,6.76
2018-11-11T22:08:41.915Z,6.80
2018-11-11T22:11:13.994Z,6.68
2018-11-11T22:13:46.036Z,6.72
2018-11-11T22:16:18.039Z,6.56
2018-11-11T22:18:50.056Z,6.50
2018-11-11T22:21:22.084Z,6.50
2018-11-11T22:23:54.114Z,6.59
2018-11-11T22:26:26.128Z,6.55
2018-11-11T22:28:58.189Z,6.50
2018-11-11T22:31:30.210Z,6.50
2018-11-11T22:34:02.276Z,6.33
2018-11-11T22:36:34.343Z,6.24
2018-11-11T22:39:07.384Z,6.26
2018-11-11T22:41:39.464Z,6.26
2018-11-11T22:44:11.564Z,6.25
2018-11-11T22:46:43.939Z,6.18
2018-11-11T22:49:15.958Z,6.08
2018-11-11T22:51:48.057Z,6.16
2018-11-11T22:54:20.256Z,6.09
2018-11-11T22:56:52.388Z,6.14
2018-11-11T22:59:24.402Z,6.20
2018-11-11T23:01:56.426Z,6.21
2018-11-11T23:04:28.431Z,6.21
2018-11-11T23:07:00.438Z,6.10
2018-11-11T23:09:32.527Z,6.17
2018-11-11T23:12:04.551Z,6.13
2018-11-11T23:14:36.511Z,6.12
2018-11-11T23:17:08.506Z,6.09
2018-11-11T23:19:40.516Z,6.08
2018-11-11T23:22:12.515Z,5.99
2018-11-11T23:24:44.546Z,6.04
2018-11-11T23:27:16.532Z,5.98
2018-11-11T23:29:48.539Z,5.94
2018-11-11T23:32:20.499Z,5.90
2018-11-11T23:34:52.494Z,5.88
2018-11-11T23:37:24.542Z,5.85
2018-11-11T23:39:56.552Z,5.78
2018-11-11T23:42:28.567Z,5.70
2018-11-11T23:45:00.550Z,5.50
2018-11-11T23:47:32.748Z,5.49
2018-11-11T23:50:08.728Z,5.50
2018-11-11T23:52:41.200Z,5.66
2018-11-11T23:55:15.341Z,5.54
2018-11-11T23:57:47.519Z,5.41
